createdAt,value
2022-11-13T00:05:15.611Z,99.64
2022-11-13T00:10:35.971Z,99.43
2022-11-13T00:16:02.489Z,99.14
2022-11-13T00:21:25.190Z,98.90
2022-11-13T00:26:45.246Z,99.34
2022-11-13T00:32:06.199Z,99.12
2022-11-13T00:37:26.369Z,99.00
2022-11-13T00:42:46.819Z,98.40
2022-11-13T00:48:07.069Z,98.42
2022-11-13T00:53:27.762Z,98.69
2022-11-13T00:58:47.802Z,98.23
2022-11-13T01:04:08.152Z,98.12
2022-11-13T01:09:28.392Z,97.99
2022-11-13T01:14:49.060Z,97.86
2022-11-13T01:20:09.825Z,98.05
2022-11-13T01:25:31.027Z,97.79
2022-11-13T01:30:50.968Z,97.92
2022-11-13T01:36:20.620Z,97.35
2022-11-13T01:41:41.161Z,97.21
2022-11-13T01:47:03.446Z,97.62
2022-11-13T01:52:34.255Z,97.92
2022-11-13T01:57:54.859Z,98.28
2022-11-13T02:03:15.284Z,98.17
2022-11-13T02:08:35.635Z,97.78
2022-11-13T02:13:55.935Z,97.63
2022-11-13T02:19:24.079Z,97.79
2022-11-13T02:24:49.847Z,97.68
2022-11-13T02:30:23.583Z,97.92
2022-11-13T02:35:45.909Z,97.71
2022-11-13T02:41:06.344Z,97.89
2022-11-13T02:46:26.531Z,97.96
2022-11-13T02:51:46.961Z,98.45
2022-11-13T02:57:07.038Z,98.35
2022-11-13T03:02:28.323Z,98.48
2022-11-13T03:07:48.779Z,98.15
2022-11-13T03:13:08.967Z,98.14
2022-11-13T03:18:29.581Z,98.31
2022-11-13T03:23:49.957Z,98.40
2022-11-13T03:29:10.501Z,98.50
2022-11-13T03:34:30.820Z,98.15
2022-11-13T03:39:51.334Z,97.96
2022-11-13T03:45:11.889Z,97.77
2022-11-13T03:50:31.967Z,97.90
2022-11-13T03:55:52.734Z,97.72
2022-11-13T04:01:12.882Z,98.12
2022-11-13T04:06:33.174Z,97.93
2022-11-13T04:11:53.224Z,97.59
2022-11-13T04:17:13.282Z,97.52
2022-11-13T04:22:33.532Z,97.75
2022-11-13T04:27:53.836Z,97.70
2022-11-13T04:33:14.444Z,97.72
2022-11-13T04:38:34.612Z,98.17
2022-11-13T04:43:54.772Z,97.54
2022-11-13T04:49:15.108Z,97.84
2022-11-13T04:54:35.353Z,97.72
2022-11-13T04:59:55.504Z,97.90
2022-11-13T05:05:16.923Z,97.83
2022-11-13T05:10:37.326Z,97.91
2022-11-13T05:16:07.139Z,96.98
2022-11-13T05:21:27.216Z,97.08
2022-11-13T05:26:47.694Z,97.23
2022-11-13T05:32:08.274Z,97.16
2022-11-13T05:37:29.595Z,97.20
2022-11-13T05:42:50.122Z,96.52
2022-11-13T05:48:10.825Z,96.20
2022-11-13T05:53:33.790Z,96.36
2022-11-13T05:58:55.263Z,95.72
2022-11-13T06:04:15.312Z,95.32
2022-11-13T06:09:35.816Z,94.85
2022-11-13T06:14:56.320Z,94.47
2022-11-13T06:20:16.762Z,94.07
2022-11-13T06:25:37.295Z,93.65
2022-11-13T06:31:05.858Z,93.55
2022-11-13T06:36:28.667Z,93.21
2022-11-13T06:41:49.038Z,93.35
2022-11-13T06:47:09.590Z,93.33
2022-11-13T06:52:30.100Z,93.45
2022-11-13T06:57:50.421Z,92.91
2022-11-13T07:03:19.801Z,93.63
2022-11-13T07:08:41.624Z,93.65
2022-11-13T07:14:01.884Z,94.53
2022-11-13T07:19:22.042Z,94.41
2022-11-13T07:24:42.626Z,94.19
2022-11-13T07:30:06.919Z,94.64
2022-11-13T07:35:27.228Z,94.67
2022-11-13T07:40:47.709Z,95.08
2022-11-13T07:46:08.199Z,95.65
2022-11-13T07:51:28.615Z,95.99
2022-11-13T07:56:49.296Z,95.89
2022-11-13T08:02:15.190Z,95.96
2022-11-13T08:07:35.241Z,95.91
2022-11-13T08:13:03.756Z,95.53
2022-11-13T08:18:24.296Z,95.52
2022-11-13T08:23:44.765Z,95.67
2022-11-13T08:29:04.996Z,95.90
2022-11-13T08:34:25.177Z,96.15
2022-11-13T08:39:45.601Z,98.52
2022-11-13T08:45:06.721Z,96.12
2022-11-13T08:50:28.992Z,95.61
2022-11-13T08:55:49.664Z,95.53
2022-11-13T09:01:10.426Z,96.11
2022-11-13T09:06:30.955Z,96.37
2022-11-13T09:11:51.096Z,95.93
2022-11-13T09:17:11.150Z,95.95
2022-11-13T09:22:31.712Z,96.35
2022-11-13T09:27:57.140Z,96.59
2022-11-13T09:33:17.560Z,96.67
2022-11-13T09:38:38.753Z,96.26
2022-11-13T09:44:03.365Z,96.57
2022-11-13T09:49:34.434Z,96.45
2022-11-13T09:54:54.445Z,96.33
2022-11-13T10:00:22.513Z,95.44
2022-11-13T10:05:54.892Z,94.46
2022-11-13T10:11:35.708Z,93.76
2022-11-13T10:17:02.797Z,93.45
2022-11-13T10:22:39.318Z,93.09
2022-11-13T10:28:15.882Z,92.41
2022-11-13T10:33:42.126Z,92.34
2022-11-13T10:39:06.629Z,91.95
2022-11-13T10:44:33.733Z,91.34
2022-11-13T10:49:56.086Z,89.43
2022-11-13T10:55:25.104Z,88.02
2022-11-13T11:00:50.553Z,87.00
2022-11-13T11:06:11.747Z,86.83
2022-11-13T11:11:50.097Z,85.76
2022-11-13T11:17:14.126Z,83.70
2022-11-13T11:22:38.520Z,81.64
2022-11-13T11:28:07.765Z,81.66
2022-11-13T11:33:47.471Z,81.50
2022-11-13T11:39:19.335Z,79.44
2022-11-13T11:44:48.383Z,79.21
2022-11-13T11:50:17.825Z,77.96
2022-11-13T11:55:47.677Z,78.65
2022-11-13T12:01:37.994Z,77.37
2022-11-13T12:07:15.305Z,77.53
2022-11-13T12:12:38.724Z,76.91
2022-11-13T12:18:27.005Z,77.76
2022-11-13T12:23:58.739Z,76.76
2022-11-13T12:29:43.425Z,76.07
2022-11-13T12:35:19.569Z,73.51
2022-11-13T12:40:48.693Z,73.27
2022-11-13T12:46:12.941Z,73.38
2022-11-13T12:51:40.823Z,72.89
2022-11-13T12:57:13.164Z,71.71
2022-11-13T13:02:47.076Z,71.81
2022-11-13T13:08:10.280Z,71.32
2022-11-13T13:14:13.332Z,70.13
2022-11-13T13:19:35.318Z,71.27
2022-11-13T13:25:02.117Z,70.93
2022-11-13T13:30:27.616Z,70.91
2022-11-13T13:36:09.037Z,71.04
2022-11-13T13:41:53.429Z,71.36
2022-11-13T13:47:22.590Z,71.83
2022-11-13T13:52:44.024Z,72.25
2022-11-13T13:58:09.785Z,72.29
2022-11-13T14:03:30.375Z,72.47
2022-11-13T14:08:50.476Z,73.00
2022-11-13T14:14:17.697Z,73.14
2022-11-13T14:19:38.989Z,73.52
2022-11-13T14:25:01.406Z,74.03
2022-11-13T14:30:24.463Z,74.05
2022-11-13T14:35:52.892Z,74.68
2022-11-13T14:41:23.223Z,75.37
2022-11-13T14:46:47.489Z,76.10
2022-11-13T14:52:20.922Z,76.98
2022-11-13T14:57:50.713Z,77.78
2022-11-13T15:03:10.907Z,78.68
2022-11-13T15:08:31.359Z,79.09
2022-11-13T15:13:52.628Z,78.91
2022-11-13T15:19:17.250Z,79.28
2022-11-13T15:24:37.630Z,79.81
2022-11-13T15:29:58.029Z,80.12
2022-11-13T15:35:19.049Z,81.12
2022-11-13T15:40:39.617Z,81.61
2022-11-13T15:45:59.873Z,82.33
2022-11-13T15:51:28.189Z,82.86
2022-11-13T15:56:48.620Z,82.84
2022-11-13T16:02:09.752Z,83.43
2022-11-13T16:07:31.573Z,83.91
2022-11-13T16:12:52.661Z,83.99
2022-11-13T16:18:24.421Z,84.36
2022-11-13T16:23:44.927Z,84.40
2022-11-13T16:29:18.453Z,84.31
2022-11-13T16:34:39.442Z,84.54
2022-11-13T16:39:59.892Z,84.95
2022-11-13T16:45:21.279Z,85.20
2022-11-13T16:50:42.461Z,85.63
2022-11-13T16:56:13.116Z,84.84
2022-11-13T17:01:33.492Z,84.60
2022-11-13T17:06:56.802Z,85.18
2022-11-13T17:12:21.879Z,86.05
2022-11-13T17:17:43.636Z,85.89
2022-11-13T17:23:04.113Z,86.62
2022-11-13T17:28:24.607Z,86.73
2022-11-13T17:33:45.030Z,86.56
2022-11-13T17:39:05.515Z,86.08
2022-11-13T17:44:25.615Z,87.22
2022-11-13T17:49:46.282Z,87.67
2022-11-13T17:55:07.645Z,88.00
2022-11-13T18:00:28.012Z,87.86
2022-11-13T18:05:48.260Z,87.56
2022-11-13T18:11:24.470Z,86.95
2022-11-13T18:16:45.446Z,87.20
2022-11-13T18:22:06.436Z,86.90
2022-11-13T18:27:26.576Z,87.12
2022-11-13T18:32:46.758Z,87.55
2022-11-13T18:38:08.229Z,87.89
2022-11-13T18:43:28.663Z,88.28
2022-11-13T18:48:49.693Z,88.10
2022-11-13T18:54:11.964Z,88.47
2022-11-13T18:59:33.101Z,87.78
2022-11-13T19:04:53.465Z,87.75
2022-11-13T19:10:16.049Z,87.65
2022-11-13T19:15:37.915Z,87.05
2022-11-13T19:20:58.778Z,87.65
2022-11-13T19:26:19.343Z,87.00
2022-11-13T19:31:39.952Z,86.32
2022-11-13T19:37:00.429Z,87.07
2022-11-13T19:42:21.569Z,86.41
2022-11-13T19:47:41.917Z,85.51
2022-11-13T19:53:02.178Z,86.10
2022-11-13T19:58:22.414Z,86.02
2022-11-13T20:03:43.305Z,85.57
2022-11-13T20:09:04.352Z,86.39
2022-11-13T20:14:24.454Z,86.68
2022-11-13T20:19:44.742Z,86.29
2022-11-13T20:25:05.293Z,86.49
2022-11-13T20:30:25.548Z,86.32
2022-11-13T20:35:55.227Z,86.37
2022-11-13T20:41:15.691Z,86.08
2022-11-13T20:46:36.095Z,86.33
2022-11-13T20:51:57.411Z,86.50
2022-11-13T20:57:21.185Z,85.63
2022-11-13T21:02:42.111Z,85.49
2022-11-13T21:08:02.523Z,85.58
2022-11-13T21:13:22.765Z,86.01
2022-11-13T21:18:42.895Z,85.71
2022-11-13T21:24:03.482Z,85.78
2022-11-13T21:29:23.865Z,85.48
2022-11-13T21:34:46.390Z,85.76
2022-11-13T21:40:07.802Z,85.26
2022-11-13T21:45:28.028Z,85.72
2022-11-13T21:50:48.358Z,85.34
2022-11-13T21:56:14.257Z,85.55
2022-11-13T22:01:38.631Z,85.44
2022-11-13T22:06:59.108Z,86.11
2022-11-13T22:12:19.815Z,85.99
2022-11-13T22:17:41.216Z,85.84
2022-11-13T22:23:05.390Z,85.58
2022-11-13T22:28:25.449Z,85.80
2022-11-13T22:33:48.954Z,85.57
2022-11-13T22:39:11.786Z,85.82
2022-11-13T22:44:54.392Z,85.50
2022-11-13T22:50:12.599Z,85.61
2022-11-13T22:55:33.007Z,85.60
2022-11-13T23:00:53.328Z,85.84
2022-11-13T23:06:17.840Z,84.62
2022-11-13T23:11:40.300Z,84.51
2022-11-13T23:17:00.709Z,84.81
2022-11-13T23:22:21.393Z,85.62
2022-11-13T23:27:41.627Z,86.39
2022-11-13T23:33:02.045Z,87.38
2022-11-13T23:38:22.606Z,87.49
2022-11-13T23:49:23.165Z,88.27
2022-11-13T23:54:44.045Z,88.71
